createdAt,value
2023-04-26T00:00:07.258Z,39.35
2023-04-26T00:02:33.837Z,39.41
2023-04-26T00:05:00.587Z,39.33
2023-04-26T00:07:27.228Z,39.26
2023-04-26T00:09:53.741Z,39.25
2023-04-26T00:12:20.559Z,39.30
2023-04-26T00:14:48.280Z,39.30
2023-04-26T00:17:14.758Z,39.25
2023-04-26T00:19:41.328Z,39.41
2023-04-26T00:22:07.906Z,39.13
2023-04-26T00:24:34.753Z,39.36
2023-04-26T00:27:01.234Z,39.47
2023-04-26T00:29:27.819Z,39.42
2023-04-26T00:31:55.586Z,39.26
2023-04-26T00:34:22.206Z,39.32
2023-04-26T00:36:48.652Z,39.37
2023-04-26T00:39:15.120Z,39.25
2023-04-26T00:41:41.634Z,39.40
2023-04-26T00:44:08.091Z,39.18
2023-04-26T00:46:34.624Z,39.17
2023-04-26T00:49:02.772Z,39.34
2023-04-26T00:51:29.490Z,39.31
2023-04-26T00:53:56.074Z,39.27
2023-04-26T00:56:24.887Z,39.14
2023-04-26T00:58:51.538Z,39.22
2023-04-26T01:01:18.361Z,39.11
2023-04-26T01:03:44.977Z,39.51
2023-04-26T01:06:13.092Z,39.47
2023-04-26T01:08:39.765Z,39.30
2023-04-26T01:11:06.378Z,39.22
2023-04-26T01:13:33.065Z,39.23
2023-04-26T01:16:00.066Z,39.23
2023-04-26T01:18:26.959Z,39.21
2023-04-26T01:20:53.427Z,39.19
2023-04-26T01:23:21.203Z,39.21
2023-04-26T01:25:48.392Z,39.20
2023-04-26T01:28:14.893Z,39.13
2023-04-26T01:30:41.435Z,39.19
2023-04-26T01:33:08.042Z,39.20
2023-04-26T01:35:34.526Z,39.11
2023-04-26T01:38:01.160Z,39.31
2023-04-26T01:40:28.882Z,39.26
2023-04-26T01:42:56.123Z,39.23
2023-04-26T01:45:22.575Z,39.17
2023-04-26T01:47:49.093Z,39.06
2023-04-26T01:50:15.673Z,39.09
2023-04-26T01:52:42.155Z,39.27
2023-04-26T01:55:09.055Z,39.22
2023-04-26T01:57:36.852Z,39.14
2023-04-26T02:00:03.660Z,39.07
2023-04-26T02:02:30.217Z,39.04
2023-04-26T02:04:56.846Z,39.00
2023-04-26T02:07:23.478Z,39.19
2023-04-26T02:09:49.997Z,39.11
2023-04-26T02:12:16.442Z,39.32
2023-04-26T02:14:44.250Z,39.38
2023-04-26T02:17:10.691Z,39.46
2023-04-26T02:19:37.178Z,39.02
2023-04-26T02:22:05.251Z,39.19
2023-04-26T02:24:33.492Z,39.11
2023-04-26T02:27:00.199Z,39.07
2023-04-26T02:29:42.145Z,39.14
2023-04-26T02:32:10.594Z,39.14
2023-04-26T02:34:37.046Z,39.11
2023-04-26T02:37:03.622Z,39.05
2023-04-26T02:39:30.201Z,38.90
2023-04-26T02:41:56.869Z,39.11
2023-04-26T02:44:23.386Z,39.25
2023-04-26T02:46:49.836Z,39.34
2023-04-26T02:49:17.648Z,39.40
2023-04-26T02:51:44.069Z,39.29
2023-04-26T02:54:10.609Z,39.23
2023-04-26T02:56:37.042Z,39.22
2023-04-26T02:59:03.470Z,39.29
2023-04-26T03:01:30.049Z,39.30
2023-04-26T03:03:56.696Z,39.17
2023-04-26T03:06:24.616Z,39.27
2023-04-26T03:08:51.455Z,39.09
2023-04-26T03:11:18.237Z,39.59
2023-04-26T03:13:44.802Z,39.30
2023-04-26T03:16:11.366Z,39.43
2023-04-26T03:18:37.893Z,39.25
2023-04-26T03:21:04.431Z,39.35
2023-04-26T03:23:32.225Z,39.48
2023-04-26T03:25:58.648Z,39.33
2023-04-26T03:28:25.241Z,39.53
2023-04-26T03:30:51.878Z,39.29
2023-04-26T03:33:18.402Z,39.32
2023-04-26T03:35:44.864Z,39.12
2023-04-26T03:38:11.339Z,39.15
2023-04-26T03:40:39.268Z,39.27
2023-04-26T03:43:05.768Z,39.54
2023-04-26T03:45:32.412Z,39.29
2023-04-26T03:47:59.001Z,39.32
2023-04-26T03:50:25.528Z,39.61
2023-04-26T03:52:51.978Z,39.58
2023-04-26T03:55:18.508Z,39.39
2023-04-26T03:57:46.335Z,39.45
2023-04-26T04:00:13.672Z,39.54
2023-04-26T04:02:40.813Z,39.21
2023-04-26T04:05:07.957Z,39.52
2023-04-26T04:07:34.620Z,39.30
2023-04-26T04:10:01.169Z,39.36
2023-04-26T04:12:27.757Z,39.38
2023-04-26T04:14:55.500Z,39.21
2023-04-26T04:17:22.151Z,39.22
2023-04-26T04:19:48.678Z,39.40
2023-04-26T04:22:15.134Z,39.37
2023-04-26T04:24:41.616Z,39.56
2023-04-26T04:27:08.073Z,39.40
2023-04-26T04:29:34.529Z,39.35
2023-04-26T04:32:02.377Z,39.40
2023-04-26T04:34:28.836Z,39.31
2023-04-26T04:36:55.302Z,39.58
2023-04-26T04:39:21.863Z,39.42
2023-04-26T04:41:48.354Z,39.46
2023-04-26T04:44:15.399Z,39.39
2023-04-26T04:46:41.948Z,39.32
2023-04-26T04:49:11.664Z,39.48
2023-04-26T04:51:38.153Z,39.33
2023-04-26T04:54:10.736Z,39.38
2023-04-26T04:56:37.266Z,39.57
2023-04-26T04:59:03.915Z,39.68
2023-04-26T05:01:30.931Z,39.50
2023-04-26T05:03:57.955Z,39.44
2023-04-26T05:06:27.640Z,39.38
2023-04-26T05:08:54.103Z,39.44
2023-04-26T05:11:20.584Z,39.43
2023-04-26T05:13:48.582Z,39.55
2023-04-26T05:16:16.068Z,39.58
2023-04-26T05:18:42.897Z,39.51
2023-04-26T05:21:09.639Z,39.45
2023-04-26T05:23:37.446Z,39.47
2023-04-26T05:26:04.396Z,39.53
2023-04-26T05:28:30.848Z,39.44
2023-04-26T05:30:57.356Z,39.63
2023-04-26T05:33:23.891Z,39.68
2023-04-26T05:35:50.387Z,39.75
2023-04-26T05:38:16.845Z,39.71
2023-04-26T05:40:44.574Z,39.70
2023-04-26T05:43:11.031Z,39.73
2023-04-26T05:45:37.478Z,39.54
2023-04-26T05:48:04.330Z,39.76
2023-04-26T05:50:30.860Z,39.71
2023-04-26T05:52:57.453Z,39.45
2023-04-26T05:55:23.965Z,39.56
2023-04-26T05:57:51.874Z,39.56
2023-04-26T06:00:19.155Z,39.53
2023-04-26T06:02:45.768Z,39.68
2023-04-26T06:05:12.504Z,39.75
2023-04-26T06:07:39.005Z,40.01
2023-04-26T06:10:06.058Z,40.17
2023-04-26T06:12:32.476Z,39.92
2023-04-26T06:15:00.255Z,39.94
2023-04-26T06:17:26.742Z,39.95
2023-04-26T06:19:53.581Z,39.87
2023-04-26T06:22:20.109Z,39.82
2023-04-26T06:24:46.630Z,39.93
2023-04-26T06:27:13.185Z,39.78
2023-04-26T06:29:39.666Z,39.74
2023-04-26T06:32:07.486Z,39.68
2023-04-26T06:34:33.974Z,39.78
2023-04-26T06:37:00.480Z,39.82
2023-04-26T06:39:27.007Z,40.04
2023-04-26T06:41:53.563Z,40.03
2023-04-26T06:44:20.035Z,39.96
2023-04-26T06:46:46.649Z,40.04
2023-04-26T06:49:14.553Z,40.03
2023-04-26T06:51:41.127Z,40.03
2023-04-26T06:54:07.589Z,40.06
2023-04-26T06:56:34.147Z,39.81
2023-04-26T06:59:01.989Z,40.06
2023-04-26T07:01:28.760Z,40.03
2023-04-26T07:03:56.467Z,40.02
2023-04-26T07:06:26.002Z,39.99
2023-04-26T07:08:52.688Z,40.03
2023-04-26T07:11:19.441Z,39.86
2023-04-26T07:13:45.916Z,39.97
2023-04-26T07:16:12.413Z,40.24
2023-04-26T07:18:39.649Z,40.35
2023-04-26T07:21:06.349Z,40.16
2023-04-26T07:23:34.564Z,40.20
2023-04-26T07:26:01.165Z,40.20
2023-04-26T07:28:27.840Z,40.14
2023-04-26T07:30:54.385Z,40.17
2023-04-26T07:33:20.877Z,40.17
2023-04-26T07:35:54.035Z,40.27
2023-04-26T07:38:20.483Z,40.23
2023-04-26T07:40:48.210Z,40.30
2023-04-26T07:43:14.719Z,40.22
2023-04-26T07:45:41.238Z,40.22
2023-04-26T07:48:07.940Z,40.40
2023-04-26T07:50:34.490Z,40.45
2023-04-26T07:53:00.967Z,40.41
2023-04-26T07:55:27.880Z,40.42
2023-04-26T07:57:55.669Z,40.20
2023-04-26T08:00:22.217Z,40.39
2023-04-26T08:02:49.277Z,40.26
2023-04-26T08:05:16.641Z,40.32
2023-04-26T08:07:44.350Z,40.22
2023-04-26T08:10:11.185Z,40.44
2023-04-26T08:12:38.473Z,40.21
2023-04-26T08:15:06.953Z,40.40
2023-04-26T08:17:33.613Z,40.27
2023-04-26T08:20:00.184Z,40.39
2023-04-26T08:22:26.745Z,40.75
2023-04-26T08:24:54.895Z,40.46
2023-04-26T08:27:21.496Z,40.52
2023-04-26T08:29:48.039Z,40.53
2023-04-26T08:32:15.780Z,40.57
2023-04-26T08:34:42.229Z,40.49
2023-04-26T08:37:08.727Z,40.10
2023-04-26T08:39:35.219Z,40.52
2023-04-26T08:42:13.298Z,40.42
2023-04-26T08:44:41.872Z,40.48
2023-04-26T08:47:15.981Z,40.38
2023-04-26T08:49:44.703Z,40.53
2023-04-26T08:52:13.011Z,40.63
2023-04-26T08:54:41.062Z,40.72
2023-04-26T08:57:08.686Z,40.67
2023-04-26T08:59:37.188Z,40.56
2023-04-26T09:02:05.124Z,40.70
2023-04-26T09:04:31.917Z,40.57
2023-04-26T09:07:01.502Z,40.64
2023-04-26T09:09:31.036Z,40.56
2023-04-26T09:11:59.699Z,40.60
2023-04-26T09:14:26.554Z,40.61
2023-04-26T09:16:53.598Z,40.68
2023-04-26T09:19:35.300Z,40.53
2023-04-26T09:22:03.405Z,40.56
2023-04-26T09:24:46.427Z,40.61
2023-04-26T09:27:12.978Z,41.04
2023-04-26T09:29:39.715Z,40.57
2023-04-26T09:32:06.196Z,40.62
2023-04-26T09:34:44.805Z,40.69
2023-04-26T09:37:12.586Z,40.61
2023-04-26T09:39:41.505Z,40.66
2023-04-26T09:42:08.567Z,40.69
2023-04-26T09:44:35.687Z,40.83
2023-04-26T09:47:04.269Z,40.43
2023-04-26T09:49:32.790Z,40.63
2023-04-26T09:52:02.127Z,40.57
2023-04-26T09:54:43.526Z,40.51
2023-04-26T09:57:10.498Z,40.62
2023-04-26T09:59:45.830Z,40.84
2023-04-26T10:02:18.504Z,40.81
2023-04-26T10:04:47.705Z,40.73
2023-04-26T10:07:15.327Z,40.74
2023-04-26T10:09:43.388Z,40.71
2023-04-26T10:12:10.799Z,40.71
2023-04-26T10:14:37.530Z,40.69
2023-04-26T10:17:05.017Z,40.71
2023-04-26T10:19:33.380Z,40.63
2023-04-26T10:22:04.657Z,40.65
2023-04-26T10:24:31.503Z,40.66
2023-04-26T10:26:59.376Z,40.49
2023-04-26T10:29:46.931Z,40.47
2023-04-26T10:32:13.489Z,40.82
2023-04-26T10:34:40.013Z,40.80
2023-04-26T10:37:07.368Z,40.79
2023-04-26T10:39:34.089Z,40.68
2023-04-26T10:42:20.640Z,40.71
2023-04-26T10:44:48.869Z,40.75
2023-04-26T10:47:24.570Z,40.73
2023-04-26T10:49:51.186Z,40.93
2023-04-26T10:52:19.077Z,40.80
2023-04-26T10:54:48.641Z,40.73
2023-04-26T10:57:15.378Z,40.74
2023-04-26T11:00:06.706Z,40.67
2023-04-26T11:02:45.892Z,40.81
2023-04-26T11:05:33.153Z,40.96
2023-04-26T11:08:04.639Z,40.95
2023-04-26T11:10:31.161Z,40.77
2023-04-26T11:13:01.812Z,40.88
2023-04-26T11:15:29.225Z,40.96
2023-04-26T11:17:57.027Z,40.84
2023-04-26T11:20:28.121Z,40.80
2023-04-26T11:22:54.652Z,40.81
2023-04-26T11:25:21.235Z,40.93
2023-04-26T11:27:47.798Z,40.85
2023-04-26T11:30:14.636Z,40.87
2023-04-26T11:32:41.119Z,40.85
2023-04-26T11:35:09.524Z,40.99
2023-04-26T11:37:35.994Z,41.09
2023-04-26T11:40:02.459Z,41.10
2023-04-26T11:42:28.926Z,41.06
2023-04-26T11:44:56.998Z,41.11
2023-04-26T11:47:23.683Z,40.98
2023-04-26T11:49:50.410Z,40.96
2023-04-26T11:52:18.381Z,40.91
2023-04-26T11:54:44.836Z,41.07
2023-04-26T11:57:16.645Z,41.26
2023-04-26T11:59:43.778Z,40.96
2023-04-26T12:02:10.498Z,40.90
2023-04-26T12:04:38.070Z,40.86
2023-04-26T12:07:05.002Z,40.99
2023-04-26T12:09:32.859Z,41.15
2023-04-26T12:12:00.506Z,41.40
2023-04-26T12:14:31.063Z,41.17
2023-04-26T12:16:59.263Z,41.15
2023-04-26T12:19:25.745Z,41.04
2023-04-26T12:21:52.243Z,41.17
2023-04-26T12:24:23.635Z,41.13
2023-04-26T12:26:51.490Z,41.11
2023-04-26T12:29:18.020Z,41.12
2023-04-26T12:31:44.679Z,41.06
2023-04-26T12:34:11.346Z,41.08
2023-04-26T12:36:40.406Z,41.04
2023-04-26T12:39:06.927Z,41.25
2023-04-26T12:41:33.399Z,41.32
2023-04-26T12:44:01.249Z,41.36
2023-04-26T12:46:27.786Z,41.33
2023-04-26T12:48:54.321Z,41.41
2023-04-26T12:51:20.795Z,41.30
2023-04-26T12:53:47.271Z,41.52
2023-04-26T12:56:13.841Z,41.27
2023-04-26T12:58:40.497Z,41.44
2023-04-26T13:01:08.321Z,41.32
2023-04-26T13:03:35.138Z,41.43
2023-04-26T13:06:02.089Z,41.39
2023-04-26T13:08:28.808Z,41.19
2023-04-26T13:10:55.276Z,41.50
2023-04-26T13:13:26.303Z,41.80
2023-04-26T13:15:59.155Z,41.65
2023-04-26T13:18:27.060Z,41.57
2023-04-26T13:20:53.474Z,41.60
2023-04-26T13:23:19.876Z,41.71
2023-04-26T13:25:46.382Z,41.46
2023-04-26T13:28:13.109Z,41.61
2023-04-26T13:30:40.020Z,41.79
2023-04-26T13:33:06.598Z,41.62
2023-04-26T13:35:34.512Z,41.69
2023-04-26T13:38:01.104Z,41.53
2023-04-26T13:40:27.599Z,41.68
2023-04-26T13:42:54.091Z,41.84
2023-04-26T13:45:20.569Z,41.85
2023-04-26T13:47:47.029Z,41.72
2023-04-26T13:50:13.499Z,41.65
2023-04-26T13:52:41.304Z,41.63
2023-04-26T13:55:08.604Z,41.62
2023-04-26T13:57:35.041Z,41.87
2023-04-26T14:00:01.564Z,41.68
2023-04-26T14:02:28.228Z,41.78
2023-04-26T14:04:55.012Z,41.91
2023-04-26T14:07:21.727Z,41.78
2023-04-26T14:09:50.287Z,41.91
2023-04-26T14:12:16.744Z,41.83
2023-04-26T14:14:43.205Z,42.22
2023-04-26T14:17:09.673Z,42.11
2023-04-26T14:19:36.109Z,42.18
2023-04-26T14:22:02.618Z,42.02
2023-04-26T14:24:29.093Z,42.04
2023-04-26T14:26:56.886Z,41.81
2023-04-26T14:29:23.346Z,42.02
2023-04-26T14:31:49.836Z,41.94
2023-04-26T14:34:16.345Z,42.05
2023-04-26T14:36:42.797Z,42.02
2023-04-26T14:39:09.335Z,41.99
2023-04-26T14:41:35.874Z,42.09
2023-04-26T14:44:03.655Z,42.21
2023-04-26T14:46:30.152Z,42.52
2023-04-26T14:48:56.665Z,42.36
2023-04-26T14:51:23.118Z,42.26
2023-04-26T14:53:49.617Z,42.30
2023-04-26T14:56:16.096Z,42.36
2023-04-26T14:58:42.546Z,42.29
2023-04-26T15:01:10.383Z,42.14
2023-04-26T15:03:37.211Z,42.48
2023-04-26T15:06:04.134Z,42.33
2023-04-26T15:08:30.580Z,42.39
2023-04-26T15:10:57.151Z,42.45
2023-04-26T15:13:23.758Z,42.45
2023-04-26T15:15:50.178Z,42.49
2023-04-26T15:18:18.224Z,42.71
2023-04-26T15:20:44.679Z,42.85
2023-04-26T15:23:11.171Z,42.72
2023-04-26T15:25:37.581Z,42.54
2023-04-26T15:28:04.233Z,42.80
2023-04-26T15:30:30.768Z,42.65
2023-04-26T15:32:57.455Z,42.61
2023-04-26T15:35:25.426Z,42.75
2023-04-26T15:37:52.100Z,42.50
2023-04-26T15:40:18.707Z,42.74
2023-04-26T15:42:45.312Z,42.66
2023-04-26T15:45:12.029Z,42.80
2023-04-26T15:47:38.635Z,42.99
2023-04-26T15:50:06.191Z,42.91
2023-04-26T15:52:37.886Z,43.09
2023-04-26T15:55:06.306Z,42.97
2023-04-26T15:57:33.199Z,43.09
2023-04-26T16:00:00.075Z,43.00
2023-04-26T16:02:26.593Z,43.01
2023-04-26T16:04:53.209Z,43.18
2023-04-26T16:07:19.731Z,42.98
2023-04-26T16:09:47.618Z,43.17
2023-04-26T16:12:14.116Z,42.99
2023-04-26T16:14:40.630Z,42.96
2023-04-26T16:17:07.224Z,43.05
2023-04-26T16:19:33.737Z,43.45
2023-04-26T16:22:00.158Z,43.41
2023-04-26T16:24:26.660Z,43.40
2023-04-26T16:26:54.476Z,43.46
2023-04-26T16:29:20.966Z,43.45
2023-04-26T16:31:47.488Z,43.34
2023-04-26T16:34:14.035Z,43.39
2023-04-26T16:36:40.500Z,43.17
2023-04-26T16:39:06.977Z,43.38
2023-04-26T16:41:33.468Z,43.49
2023-04-26T16:44:01.253Z,43.46
2023-04-26T16:46:27.899Z,43.22
2023-04-26T16:48:54.495Z,43.72
2023-04-26T16:51:20.932Z,43.58
2023-04-26T16:53:47.422Z,43.45
2023-04-26T16:56:13.854Z,43.62
2023-04-26T16:58:40.326Z,43.64
2023-04-26T17:01:08.255Z,43.66
2023-04-26T17:03:34.836Z,43.61
2023-04-26T17:06:01.517Z,43.70
2023-04-26T17:08:28.157Z,43.59
2023-04-26T17:10:54.577Z,43.89
2023-04-26T17:13:21.405Z,43.69
2023-04-26T17:15:48.218Z,43.67
2023-04-26T17:18:16.105Z,43.67
2023-04-26T17:20:42.707Z,43.90
2023-04-26T17:23:09.200Z,43.67
2023-04-26T17:25:35.680Z,43.67
2023-04-26T17:28:02.352Z,43.55
2023-04-26T17:30:29.066Z,43.64
2023-04-26T17:32:55.567Z,43.56
2023-04-26T17:35:23.416Z,43.67
2023-04-26T17:37:50.266Z,43.50
2023-04-26T17:40:17.501Z,43.57
2023-04-26T17:42:44.330Z,43.56
2023-04-26T17:45:13.547Z,43.41
2023-04-26T17:47:41.148Z,43.69
2023-04-26T17:50:08.670Z,43.57
2023-04-26T17:52:36.819Z,43.75
2023-04-26T17:55:03.521Z,43.65
2023-04-26T17:57:30.252Z,43.65
2023-04-26T17:59:56.746Z,43.69
2023-04-26T18:02:23.339Z,43.80
2023-04-26T18:04:50.021Z,43.64
2023-04-26T18:07:16.682Z,43.66
2023-04-26T18:09:44.457Z,43.67
2023-04-26T18:12:10.966Z,43.91
2023-04-26T18:14:37.391Z,43.88
2023-04-26T18:17:04.403Z,44.09
2023-04-26T18:19:30.976Z,43.80
2023-04-26T18:21:57.608Z,43.96
2023-04-26T18:24:24.243Z,43.85
2023-04-26T18:26:52.060Z,43.93
2023-04-26T18:29:18.510Z,43.79
2023-04-26T18:31:45.033Z,44.04
2023-04-26T18:34:11.680Z,44.04
2023-04-26T18:36:38.228Z,44.00
2023-04-26T18:39:04.749Z,44.21
2023-04-26T18:41:31.238Z,44.20
2023-04-26T18:43:59.019Z,44.22
2023-04-26T18:46:25.579Z,44.06
2023-04-26T18:48:52.116Z,43.95
2023-04-26T18:51:18.588Z,44.06
2023-04-26T18:53:45.132Z,44.22
2023-04-26T18:56:11.717Z,44.19
2023-04-26T18:58:38.192Z,44.09
2023-04-26T19:01:05.972Z,44.23
2023-04-26T19:03:32.559Z,44.11
2023-04-26T19:05:59.144Z,44.50
2023-04-26T19:08:25.718Z,44.42
2023-04-26T19:10:52.187Z,44.43
2023-04-26T19:13:19.060Z,44.46
2023-04-26T19:15:45.899Z,44.50
2023-04-26T19:18:13.950Z,44.26
2023-04-26T19:20:40.401Z,44.38
2023-04-26T19:23:06.881Z,44.45
2023-04-26T19:25:34.224Z,44.34
2023-04-26T19:28:00.805Z,44.44
2023-04-26T19:30:27.293Z,44.51
2023-04-26T19:32:53.843Z,44.53
2023-04-26T19:35:21.660Z,44.57
2023-04-26T19:37:48.229Z,44.45
2023-04-26T19:40:14.771Z,44.65
2023-04-26T19:42:41.293Z,44.34
2023-04-26T19:45:08.206Z,44.63
2023-04-26T19:47:34.704Z,44.49
2023-04-26T19:50:01.289Z,44.57
2023-04-26T19:52:29.136Z,44.35
2023-04-26T19:54:55.629Z,44.49
2023-04-26T19:57:22.322Z,44.50
2023-04-26T19:59:48.894Z,44.49
2023-04-26T20:02:15.577Z,44.80
2023-04-26T20:04:42.175Z,44.65
2023-04-26T20:07:08.666Z,44.60
2023-04-26T20:09:37.050Z,44.58
2023-04-26T20:12:03.728Z,44.64
2023-04-26T20:14:30.362Z,44.85
2023-04-26T20:16:56.916Z,44.58
2023-04-26T20:19:23.412Z,44.60
2023-04-26T20:21:49.866Z,44.65
2023-04-26T20:24:16.352Z,44.63
2023-04-26T20:26:44.128Z,44.92
2023-04-26T20:29:10.566Z,44.61
2023-04-26T20:31:37.196Z,45.12
2023-04-26T20:34:03.822Z,45.04
2023-04-26T20:36:30.278Z,44.80
2023-04-26T20:38:56.760Z,44.69
2023-04-26T20:41:23.361Z,44.77
2023-04-26T20:43:51.163Z,44.68
2023-04-26T20:46:17.627Z,44.77
2023-04-26T20:48:44.184Z,44.76
2023-04-26T20:51:10.623Z,44.81
2023-04-26T20:53:37.078Z,44.65
2023-04-26T20:56:03.640Z,44.65
2023-04-26T20:58:30.232Z,44.72
2023-04-26T21:00:58.132Z,45.08
2023-04-26T21:03:24.985Z,45.05
2023-04-26T21:05:51.585Z,45.10
2023-04-26T21:08:18.037Z,44.79
2023-04-26T21:10:44.543Z,44.80
2023-04-26T21:13:11.087Z,44.76
2023-04-26T21:15:37.718Z,44.94
2023-04-26T21:18:06.027Z,44.71
2023-04-26T21:20:32.512Z,44.97
2023-04-26T21:22:59.009Z,44.94
2023-04-26T21:25:25.472Z,44.93
2023-04-26T21:27:51.904Z,44.97
2023-04-26T21:30:18.650Z,45.16
2023-04-26T21:32:45.102Z,44.99
2023-04-26T21:35:12.995Z,45.04
2023-04-26T21:37:39.554Z,45.11
2023-04-26T21:40:07.168Z,45.05
2023-04-26T21:42:33.725Z,44.96
2023-04-26T21:45:00.297Z,45.00
2023-04-26T21:47:26.857Z,44.96
2023-04-26T21:49:53.320Z,44.95
2023-04-26T21:52:21.112Z,44.88
2023-04-26T21:54:47.623Z,45.13
2023-04-26T21:57:14.061Z,44.90
2023-04-26T21:59:40.533Z,45.22
2023-04-26T22:02:07.034Z,45.05
2023-04-26T22:04:33.566Z,45.03
2023-04-26T22:07:00.155Z,45.13
2023-04-26T22:09:27.915Z,45.15
2023-04-26T22:11:54.419Z,45.06
2023-04-26T22:14:20.887Z,45.03
2023-04-26T22:16:47.459Z,45.03
2023-04-26T22:19:14.232Z,45.07
2023-04-26T22:21:40.998Z,45.00
2023-04-26T22:24:08.240Z,44.96
2023-04-26T22:26:35.998Z,45.30
2023-04-26T22:29:02.537Z,45.47
2023-04-26T22:31:29.043Z,45.37
2023-04-26T22:33:55.555Z,45.07
2023-04-26T22:36:22.048Z,45.14
2023-04-26T22:38:48.621Z,45.14
2023-04-26T22:41:15.085Z,45.20
2023-04-26T22:43:42.852Z,45.22
2023-04-26T22:46:09.371Z,45.10
2023-04-26T22:48:35.952Z,45.10
2023-04-26T22:51:02.457Z,45.02
2023-04-26T22:53:28.993Z,45.13
2023-04-26T22:55:55.415Z,45.02
2023-04-26T22:58:21.888Z,45.09
2023-04-26T23:00:49.684Z,45.39
2023-04-26T23:03:16.240Z,45.50
2023-04-26T23:05:42.790Z,45.27
2023-04-26T23:08:09.319Z,45.15
2023-04-26T23:10:35.877Z,45.04
2023-04-26T23:13:02.390Z,45.11
2023-04-26T23:15:28.796Z,45.14
2023-04-26T23:17:56.620Z,45.15
2023-04-26T23:20:23.225Z,45.06
2023-04-26T23:22:49.700Z,45.08
2023-04-26T23:25:16.205Z,45.07
2023-04-26T23:27:42.673Z,45.07
2023-04-26T23:30:09.657Z,45.33
2023-04-26T23:32:36.208Z,45.18
2023-04-26T23:35:04.295Z,45.34
2023-04-26T23:37:30.815Z,45.26
2023-04-26T23:39:57.237Z,45.08
2023-04-26T23:42:23.830Z,45.21
2023-04-26T23:44:50.330Z,45.09
2023-04-26T23:47:16.790Z,45.12
2023-04-26T23:49:43.234Z,45.20
2023-04-26T23:52:11.127Z,45.15
2023-04-26T23:54:37.556Z,45.11
2023-04-26T23:57:04.049Z,45.05
2023-04-26T23:59:30.567Z,45.11
